sensor_id;sensor_type;location;lat;lon;timestamp;temperature;humidity
3268;DHT22;1646;52.450;13.326;2023-01-20T00:03:14;3.70;99.90
3268;DHT22;1646;52.450;13.326;2023-01-20T00:08:12;3.80;99.90
3268;DHT22;1646;52.450;13.326;2023-01-20T00:13:10;3.70;99.90
3268;DHT22;1646;52.450;13.326;2023-01-20T00:18:09;3.70;99.90
3268;DHT22;1646;52.450;13.326;2023-01-20T00:23:09;3.70;99.90
3268;DHT22;1646;52.450;13.326;2023-01-20T00:28:07;3.60;99.90
3268;DHT22;1646;52.450;13.326;2023-01-20T00:33:05;3.60;99.90
3268;DHT22;1646;52.450;13.326;2023-01-20T00:38:04;3.70;99.90
3268;DHT22;1646;52.450;13.326;2023-01-20T00:43:03;3.70;99.90
3268;DHT22;1646;52.450;13.326;2023-01-20T00:48:02;3.70;99.90
3268;DHT22;1646;52.450;13.326;2023-01-20T00:53:00;3.70;99.90
3268;DHT22;1646;52.450;13.326;2023-01-20T00:57:58;3.80;99.90
3268;DHT22;1646;52.450;13.326;2023-01-20T01:02:58;3.80;99.90
3268;DHT22;1646;52.450;13.326;2023-01-20T01:07:56;3.90;99.90
3268;DHT22;1646;52.450;13.326;2023-01-20T01:12:54;4.00;99.90
3268;DHT22;1646;52.450;13.326;2023-01-20T01:17:54;4.00;99.90
3268;DHT22;1646;52.450;13.326;2023-01-20T01:22:55;4.00;99.90
3268;DHT22;1646;52.450;13.326;2023-01-20T01:27:53;4.00;99.90
3268;DHT22;1646;52.450;13.326;2023-01-20T01:32:51;4.00;99.90
3268;DHT22;1646;52.450;13.326;2023-01-20T01:37:50;4.10;99.90
3268;DHT22;1646;52.450;13.326;2023-01-20T01:42:49;4.10;99.90
3268;DHT22;1646;52.450;13.326;2023-01-20T01:47:51;4.10;99.90
3268;DHT22;1646;52.450;13.326;2023-01-20T01:52:53;3.90;99.90
3268;DHT22;1646;52.450;13.326;2023-01-20T01:57:54;3.80;99.90
3268;DHT22;1646;52.450;13.326;2023-01-20T02:02:55;3.90;99.90
3268;DHT22;1646;52.450;13.326;2023-01-20T02:07:54;3.80;99.90
3268;DHT22;1646;52.450;13.326;2023-01-20T02:12:54;3.70;99.90
3268;DHT22;1646;52.450;13.326;2023-01-20T02:18:06;3.60;99.90
3268;DHT22;1646;52.450;13.326;2023-01-20T02:23:10;3.60;99.90
3268;DHT22;1646;52.450;13.326;2023-01-20T02:28:45;3.60;99.90
3268;DHT22;1646;52.450;13.326;2023-01-20T02:33:52;3.60;99.90
3268;DHT22;1646;52.450;13.326;2023-01-20T02:38:55;3.50;99.90
3268;DHT22;1646;52.450;13.326;2023-01-20T02:43:57;3.30;99.90
3268;DHT22;1646;52.450;13.326;2023-01-20T02:49:04;3.50;99.90
3268;DHT22;1646;52.450;13.326;2023-01-20T02:54:09;3.30;99.90
3268;DHT22;1646;52.450;13.326;2023-01-20T02:59:10;3.30;99.90
3268;DHT22;1646;52.450;13.326;2023-01-20T03:04:12;3.30;99.90
3268;DHT22;1646;52.450;13.326;2023-01-20T03:09:16;3.30;99.90
3268;DHT22;1646;52.450;13.326;2023-01-20T03:14:16;3.50;99.90
3268;DHT22;1646;52.450;13.326;2023-01-20T03:19:16;3.60;99.90
3268;DHT22;1646;52.450;13.326;2023-01-20T03:24:16;3.50;99.90
3268;DHT22;1646;52.450;13.326;2023-01-20T03:29:14;3.50;99.90
3268;DHT22;1646;52.450;13.326;2023-01-20T03:34:18;3.40;99.90
3268;DHT22;1646;52.450;13.326;2023-01-20T03:39:19;3.30;99.90
3268;DHT22;1646;52.450;13.326;2023-01-20T03:44:22;3.40;99.90
3268;DHT22;1646;52.450;13.326;2023-01-20T03:49:32;3.40;99.90
3268;DHT22;1646;52.450;13.326;2023-01-20T03:54:36;3.50;99.90
3268;DHT22;1646;52.450;13.326;2023-01-20T03:59:39;3.50;99.90
3268;DHT22;1646;52.450;13.326;2023-01-20T04:04:43;3.30;99.90
3268;DHT22;1646;52.450;13.326;2023-01-20T04:09:44;3.10;99.90
3268;DHT22;1646;52.450;13.326;2023-01-20T04:14:44;3.30;99.90
3268;DHT22;1646;52.450;13.326;2023-01-20T04:19:44;3.30;99.90
3268;DHT22;1646;52.450;13.326;2023-01-20T04:24:44;3.40;99.90
3268;DHT22;1646;52.450;13.326;2023-01-20T04:29:45;3.30;99.90
3268;DHT22;1646;52.450;13.326;2023-01-20T04:34:45;2.90;99.90
3268;DHT22;1646;52.450;13.326;2023-01-20T04:39:43;2.70;99.90
3268;DHT22;1646;52.450;13.326;2023-01-20T04:44:41;2.70;99.90
3268;DHT22;1646;52.450;13.326;2023-01-20T04:49:40;2.70;99.90
3268;DHT22;1646;52.450;13.326;2023-01-20T04:54:39;2.80;99.90
3268;DHT22;1646;52.450;13.326;2023-01-20T04:59:37;2.60;99.90
3268;DHT22;1646;52.450;13.326;2023-01-20T05:04:36;2.70;99.90
3268;DHT22;1646;52.450;13.326;2023-01-20T05:09:34;2.90;99.90
3268;DHT22;1646;52.450;13.326;2023-01-20T05:14:34;3.10;99.90
3268;DHT22;1646;52.450;13.326;2023-01-20T05:19:32;3.00;99.90
3268;DHT22;1646;52.450;13.326;2023-01-20T05:24:31;2.80;99.90
3268;DHT22;1646;52.450;13.326;2023-01-20T05:29:29;2.60;99.90
3268;DHT22;1646;52.450;13.326;2023-01-20T05:34:29;2.60;99.90
3268;DHT22;1646;52.450;13.326;2023-01-20T05:39:27;2.60;99.90
3268;DHT22;1646;52.450;13.326;2023-01-20T05:44:25;2.30;99.90
3268;DHT22;1646;52.450;13.326;2023-01-20T05:49:24;2.30;99.90
3268;DHT22;1646;52.450;13.326;2023-01-20T05:54:23;2.30;99.90
3268;DHT22;1646;52.450;13.326;2023-01-20T05:59:22;2.50;99.90
3268;DHT22;1646;52.450;13.326;2023-01-20T06:04:20;2.50;99.90
3268;DHT22;1646;52.450;13.326;2023-01-20T06:09:19;2.50;99.90
3268;DHT22;1646;52.450;13.326;2023-01-20T06:14:19;2.40;99.90
3268;DHT22;1646;52.450;13.326;2023-01-20T06:19:17;2.20;99.90
3268;DHT22;1646;52.450;13.326;2023-01-20T06:24:15;2.20;99.90
3268;DHT22;1646;52.450;13.326;2023-01-20T06:29:14;2.30;99.90
3268;DHT22;1646;52.450;13.326;2023-01-20T06:34:13;2.50;99.90
3268;DHT22;1646;52.450;13.326;2023-01-20T06:39:12;2.70;99.90
3268;DHT22;1646;52.450;13.326;2023-01-20T06:44:10;2.80;99.90
3268;DHT22;1646;52.450;13.326;2023-01-20T06:49:08;2.80;99.90
3268;DHT22;1646;52.450;13.326;2023-01-20T06:54:08;2.70;99.90
3268;DHT22;1646;52.450;13.326;2023-01-20T06:59:06;2.60;99.90
3268;DHT22;1646;52.450;13.326;2023-01-20T07:04:04;2.40;99.90
3268;DHT22;1646;52.450;13.326;2023-01-20T07:09:05;2.50;99.90
3268;DHT22;1646;52.450;13.326;2023-01-20T07:14:06;2.50;99.90
3268;DHT22;1646;52.450;13.326;2023-01-20T07:19:04;2.40;99.90
3268;DHT22;1646;52.450;13.326;2023-01-20T07:24:03;2.50;99.90
3268;DHT22;1646;52.450;13.326;2023-01-20T07:29:01;2.40;99.90
3268;DHT22;1646;52.450;13.326;2023-01-20T07:34:01;2.30;99.90
3268;DHT22;1646;52.450;13.326;2023-01-20T07:38:59;2.20;99.90
3268;DHT22;1646;52.450;13.326;2023-01-20T07:43:57;2.10;99.90
3268;DHT22;1646;52.450;13.326;2023-01-20T07:48:56;2.20;99.90
3268;DHT22;1646;52.450;13.326;2023-01-20T07:53:55;2.30;99.90
3268;DHT22;1646;52.450;13.326;2023-01-20T07:58:54;2.40;99.90
3268;DHT22;1646;52.450;13.326;2023-01-20T08:03:53;2.60;99.90
3268;DHT22;1646;52.450;13.326;2023-01-20T08:08:52;2.60;99.90
3268;DHT22;1646;52.450;13.326;2023-01-20T08:13:53;2.50;99.90
3268;DHT22;1646;52.450;13.326;2023-01-20T08:18:52;2.50;99.90
3268;DHT22;1646;52.450;13.326;2023-01-20T08:23:51;2.50;99.90
3268;DHT22;1646;52.450;13.326;2023-01-20T08:28:50;2.50;99.90
3268;DHT22;1646;52.450;13.326;2023-01-20T08:33:52;2.50;99.90
3268;DHT22;1646;52.450;13.326;2023-01-20T08:38:50;2.60;99.90
3268;DHT22;1646;52.450;13.326;2023-01-20T08:43:49;2.80;99.90
3268;DHT22;1646;52.450;13.326;2023-01-20T08:48:49;3.00;99.90
3268;DHT22;1646;52.450;13.326;2023-01-20T08:53:48;3.00;99.90
3268;DHT22;1646;52.450;13.326;2023-01-20T08:58:46;3.10;99.90
3268;DHT22;1646;52.450;13.326;2023-01-20T09:03:45;3.20;99.90
3268;DHT22;1646;52.450;13.326;2023-01-20T09:09:02;3.40;99.90
3268;DHT22;1646;52.450;13.326;2023-01-20T09:14:00;3.50;99.90
3268;DHT22;1646;52.450;13.326;2023-01-20T09:18:58;3.60;99.90
3268;DHT22;1646;52.450;13.326;2023-01-20T09:23:57;3.60;99.90
3268;DHT22;1646;52.450;13.326;2023-01-20T09:28:58;3.40;99.90
3268;DHT22;1646;52.450;13.326;2023-01-20T09:34:06;3.10;99.90
3268;DHT22;1646;52.450;13.326;2023-01-20T09:39:04;3.10;99.90
3268;DHT22;1646;52.450;13.326;2023-01-20T09:44:34;3.10;99.90
3268;DHT22;1646;52.450;13.326;2023-01-20T09:49:39;2.90;99.90
3268;DHT22;1646;52.450;13.326;2023-01-20T09:55:02;2.80;99.90
3268;DHT22;1646;52.450;13.326;2023-01-20T10:00:07;2.80;99.90
3268;DHT22;1646;52.450;13.326;2023-01-20T10:05:11;2.90;99.90
3268;DHT22;1646;52.450;13.326;2023-01-20T10:10:15;3.00;99.90
3268;DHT22;1646;52.450;13.326;2023-01-20T10:15:23;3.00;99.90
3268;DHT22;1646;52.450;13.326;2023-01-20T10:20:29;3.20;99.90
3268;DHT22;1646;52.450;13.326;2023-01-20T10:25:33;3.40;99.90
3268;DHT22;1646;52.450;13.326;2023-01-20T10:30:36;3.50;99.90
3268;DHT22;1646;52.450;13.326;2023-01-20T10:35:36;3.60;99.90
3268;DHT22;1646;52.450;13.326;2023-01-20T10:40:40;3.40;99.90
3268;DHT22;1646;52.450;13.326;2023-01-20T10:46:09;3.50;99.90
3268;DHT22;1646;52.450;13.326;2023-01-20T10:51:13;3.30;99.90
3268;DHT22;1646;52.450;13.326;2023-01-20T10:56:33;3.30;99.90
3268;DHT22;1646;52.450;13.326;2023-01-20T11:01:34;3.40;99.90
3268;DHT22;1646;52.450;13.326;2023-01-20T11:06:33;3.40;99.90
3268;DHT22;1646;52.450;13.326;2023-01-20T11:11:31;3.40;99.90
3268;DHT22;1646;52.450;13.326;2023-01-20T11:16:29;3.30;99.90
3268;DHT22;1646;52.450;13.326;2023-01-20T11:21:30;3.40;99.90
3268;DHT22;1646;52.450;13.326;2023-01-20T11:26:31;3.70;99.90
3268;DHT22;1646;52.450;13.326;2023-01-20T11:31:38;3.80;99.90
3268;DHT22;1646;52.450;13.326;2023-01-20T11:36:38;3.80;99.90
3268;DHT22;1646;52.450;13.326;2023-01-20T11:41:36;4.00;99.90
3268;DHT22;1646;52.450;13.326;2023-01-20T11:46:35;4.20;99.90
3268;DHT22;1646;52.450;13.326;2023-01-20T11:51:45;4.20;99.90
3268;DHT22;1646;52.450;13.326;2023-01-20T11:56:47;4.30;99.90
3268;DHT22;1646;52.450;13.326;2023-01-20T12:01:51;4.00;99.90
3268;DHT22;1646;52.450;13.326;2023-01-20T12:06:54;3.80;99.90
3268;DHT22;1646;52.450;13.326;2023-01-20T12:11:56;3.60;99.90
3268;DHT22;1646;52.450;13.326;2023-01-20T12:17:26;3.70;99.90
3268;DHT22;1646;52.450;13.326;2023-01-20T12:22:34;3.70;99.90
3268;DHT22;1646;52.450;13.326;2023-01-20T12:27:41;3.80;99.90
3268;DHT22;1646;52.450;13.326;2023-01-20T12:32:40;4.10;99.90
3268;DHT22;1646;52.450;13.326;2023-01-20T12:37:43;3.80;99.90
3268;DHT22;1646;52.450;13.326;2023-01-20T12:43:10;3.60;99.90
3268;DHT22;1646;52.450;13.326;2023-01-20T12:48:26;3.70;99.90
3268;DHT22;1646;52.450;13.326;2023-01-20T12:53:42;3.60;99.90
3268;DHT22;1646;52.450;13.326;2023-01-20T12:58:53;3.70;99.90
3268;DHT22;1646;52.450;13.326;2023-01-20T13:04:16;4.00;99.90
3268;DHT22;1646;52.450;13.326;2023-01-20T13:09:39;4.20;99.90
3268;DHT22;1646;52.450;13.326;2023-01-20T13:14:41;4.20;99.90
3268;DHT22;1646;52.450;13.326;2023-01-20T13:19:41;4.20;99.90
3268;DHT22;1646;52.450;13.326;2023-01-20T13:24:44;4.30;99.90
3268;DHT22;1646;52.450;13.326;2023-01-20T13:29:52;4.30;99.90
3268;DHT22;1646;52.450;13.326;2023-01-20T13:34:51;4.40;99.90
3268;DHT22;1646;52.450;13.326;2023-01-20T13:39:51;4.30;99.90
3268;DHT22;1646;52.450;13.326;2023-01-20T13:45:13;4.30;99.90
3268;DHT22;1646;52.450;13.326;2023-01-20T13:50:22;4.30;99.90
3268;DHT22;1646;52.450;13.326;2023-01-20T13:55:49;4.50;99.90
3268;DHT22;1646;52.450;13.326;2023-01-20T14:00:49;4.30;99.90
3268;DHT22;1646;52.450;13.326;2023-01-20T14:05:50;4.20;99.90
3268;DHT22;1646;52.450;13.326;2023-01-20T14:10:50;4.10;99.90
3268;DHT22;1646;52.450;13.326;2023-01-20T14:15:50;4.00;99.90
3268;DHT22;1646;52.450;13.326;2023-01-20T14:21:03;4.10;99.90
3268;DHT22;1646;52.450;13.326;2023-01-20T14:26:08;4.10;99.90
3268;DHT22;1646;52.450;13.326;2023-01-20T14:31:30;4.00;99.90
3268;DHT22;1646;52.450;13.326;2023-01-20T14:36:32;3.90;99.90
3268;DHT22;1646;52.450;13.326;2023-01-20T14:41:44;3.90;99.90
3268;DHT22;1646;52.450;13.326;2023-01-20T14:46:45;3.80;99.90
3268;DHT22;1646;52.450;13.326;2023-01-20T14:51:45;3.80;99.90
3268;DHT22;1646;52.450;13.326;2023-01-20T14:56:47;4.00;99.90
3268;DHT22;1646;52.450;13.326;2023-01-20T15:01:51;4.10;99.90
3268;DHT22;1646;52.450;13.326;2023-01-20T15:06:51;4.10;99.90
3268;DHT22;1646;52.450;13.326;2023-01-20T15:12:30;4.20;99.90
3268;DHT22;1646;52.450;13.326;2023-01-20T15:17:29;4.20;99.90
3268;DHT22;1646;52.450;13.326;2023-01-20T15:22:28;4.30;99.90
3268;DHT22;1646;52.450;13.326;2023-01-20T15:27:30;4.10;99.90
3268;DHT22;1646;52.450;13.326;2023-01-20T15:32:29;4.00;99.90
3268;DHT22;1646;52.450;13.326;2023-01-20T15:37:27;4.00;99.90
3268;DHT22;1646;52.450;13.326;2023-01-20T15:42:25;4.00;99.90
3268;DHT22;1646;52.450;13.326;2023-01-20T15:47:27;3.90;99.90
3268;DHT22;1646;52.450;13.326;2023-01-20T15:52:27;3.80;99.90
3268;DHT22;1646;52.450;13.326;2023-01-20T15:57:25;3.80;99.90
3268;DHT22;1646;52.450;13.326;2023-01-20T16:02:25;3.80;99.90
3268;DHT22;1646;52.450;13.326;2023-01-20T16:07:23;3.80;99.90
3268;DHT22;1646;52.450;13.326;2023-01-20T16:12:21;3.80;99.90
3268;DHT22;1646;52.450;13.326;2023-01-20T16:17:20;3.80;99.90
3268;DHT22;1646;52.450;13.326;2023-01-20T16:22:20;3.70;99.90
3268;DHT22;1646;52.450;13.326;2023-01-20T16:27:20;3.60;99.90
3268;DHT22;1646;52.450;13.326;2023-01-20T16:32:18;3.50;99.90
3268;DHT22;1646;52.450;13.326;2023-01-20T16:37:19;3.60;99.90
3268;DHT22;1646;52.450;13.326;2023-01-20T16:42:18;3.50;99.90
3268;DHT22;1646;52.450;13.326;2023-01-20T16:47:17;3.50;99.90
3268;DHT22;1646;52.450;13.326;2023-01-20T16:52:15;3.50;99.90
3268;DHT22;1646;52.450;13.326;2023-01-20T16:57:15;3.40;99.90
3268;DHT22;1646;52.450;13.326;2023-01-20T17:02:14;3.50;99.90
3268;DHT22;1646;52.450;13.326;2023-01-20T17:07:13;3.50;99.90
3268;DHT22;1646;52.450;13.326;2023-01-20T17:12:11;3.50;99.90
3268;DHT22;1646;52.450;13.326;2023-01-20T17:17:11;3.50;99.90
3268;DHT22;1646;52.450;13.326;2023-01-20T17:22:10;3.50;99.90
3268;DHT22;1646;52.450;13.326;2023-01-20T17:27:08;3.60;99.90
3268;DHT22;1646;52.450;13.326;2023-01-20T17:32:06;3.70;99.90
3268;DHT22;1646;52.450;13.326;2023-01-20T17:37:06;3.70;99.90
3268;DHT22;1646;52.450;13.326;2023-01-20T17:42:04;3.80;99.90
3268;DHT22;1646;52.450;13.326;2023-01-20T17:47:03;3.90;99.90
3268;DHT22;1646;52.450;13.326;2023-01-20T17:52:01;3.90;99.90
3268;DHT22;1646;52.450;13.326;2023-01-20T17:57:00;3.90;99.90
3268;DHT22;1646;52.450;13.326;2023-01-20T18:01:59;3.90;99.90
3268;DHT22;1646;52.450;13.326;2023-01-20T18:06:57;3.90;99.90
3268;DHT22;1646;52.450;13.326;2023-01-20T18:11:55;3.90;99.90
3268;DHT22;1646;52.450;13.326;2023-01-20T18:16:55;4.00;99.90
3268;DHT22;1646;52.450;13.326;2023-01-20T18:21:53;4.00;99.90
3268;DHT22;1646;52.450;13.326;2023-01-20T18:26:52;4.00;99.90
3268;DHT22;1646;52.450;13.326;2023-01-20T18:31:54;4.00;99.90
3268;DHT22;1646;52.450;13.326;2023-01-20T18:36:54;4.00;99.90
3268;DHT22;1646;52.450;13.326;2023-01-20T18:41:52;4.00;99.90
3268;DHT22;1646;52.450;13.326;2023-01-20T18:46:50;3.90;99.90
3268;DHT22;1646;52.450;13.326;2023-01-20T18:51:50;3.80;99.90
3268;DHT22;1646;52.450;13.326;2023-01-20T18:56:48;3.70;99.90
3268;DHT22;1646;52.450;13.326;2023-01-20T19:01:47;3.70;99.90
3268;DHT22;1646;52.450;13.326;2023-01-20T19:06:46;3.80;99.90
3268;DHT22;1646;52.450;13.326;2023-01-20T19:11:46;3.60;99.90
3268;DHT22;1646;52.450;13.326;2023-01-20T19:16:44;3.50;99.90
3268;DHT22;1646;52.450;13.326;2023-01-20T19:21:46;3.50;99.90
3268;DHT22;1646;52.450;13.326;2023-01-20T19:26:47;3.50;99.90
3268;DHT22;1646;52.450;13.326;2023-01-20T19:31:46;3.40;99.90
3268;DHT22;1646;52.450;13.326;2023-01-20T19:36:45;3.40;99.90
3268;DHT22;1646;52.450;13.326;2023-01-20T19:41:43;3.50;99.90
3268;DHT22;1646;52.450;13.326;2023-01-20T19:46:43;3.50;99.90
3268;DHT22;1646;52.450;13.326;2023-01-20T19:51:41;3.50;99.90
3268;DHT22;1646;52.450;13.326;2023-01-20T19:56:39;3.40;99.90
3268;DHT22;1646;52.450;13.326;2023-01-20T20:01:38;3.40;99.90
3268;DHT22;1646;52.450;13.326;2023-01-20T20:06:39;3.40;99.90
3268;DHT22;1646;52.450;13.326;2023-01-20T20:11:44;3.30;99.90
3268;DHT22;1646;52.450;13.326;2023-01-20T20:16:42;3.40;99.90
3268;DHT22;1646;52.450;13.326;2023-01-20T20:21:43;3.30;99.90
3268;DHT22;1646;52.450;13.326;2023-01-20T20:26:41;3.20;99.90
3268;DHT22;1646;52.450;13.326;2023-01-20T20:31:41;3.10;99.90
3268;DHT22;1646;52.450;13.326;2023-01-20T20:36:39;3.00;99.90
3268;DHT22;1646;52.450;13.326;2023-01-20T20:41:39;2.80;99.90
3268;DHT22;1646;52.450;13.326;2023-01-20T20:46:37;2.80;99.90
3268;DHT22;1646;52.450;13.326;2023-01-20T20:51:35;2.80;99.90
3268;DHT22;1646;52.450;13.326;2023-01-20T20:56:34;2.80;99.90
3268;DHT22;1646;52.450;13.326;2023-01-20T21:01:34;2.90;99.90
3268;DHT22;1646;52.450;13.326;2023-01-20T21:06:33;2.90;99.90
3268;DHT22;1646;52.450;13.326;2023-01-20T21:11:31;2.90;99.90
3268;DHT22;1646;52.450;13.326;2023-01-20T21:16:30;2.90;99.90
3268;DHT22;1646;52.450;13.326;2023-01-20T21:21:29;2.80;99.90
3268;DHT22;1646;52.450;13.326;2023-01-20T21:26:28;2.80;99.90
3268;DHT22;1646;52.450;13.326;2023-01-20T21:31:26;2.80;99.90
3268;DHT22;1646;52.450;13.326;2023-01-20T21:36:27;2.80;99.90
3268;DHT22;1646;52.450;13.326;2023-01-20T21:41:26;2.80;99.90
3268;DHT22;1646;52.450;13.326;2023-01-20T21:46:27;2.90;99.90
3268;DHT22;1646;52.450;13.326;2023-01-20T21:51:26;2.90;99.90
3268;DHT22;1646;52.450;13.326;2023-01-20T21:56:43;2.80;99.90
3268;DHT22;1646;52.450;13.326;2023-01-20T22:01:42;2.80;99.90
3268;DHT22;1646;52.450;13.326;2023-01-20T22:06:40;2.70;99.90
3268;DHT22;1646;52.450;13.326;2023-01-20T22:11:39;2.60;99.90
3268;DHT22;1646;52.450;13.326;2023-01-20T22:16:38;2.60;99.90
3268;DHT22;1646;52.450;13.326;2023-01-20T22:21:36;2.60;99.90
3268;DHT22;1646;52.450;13.326;2023-01-20T22:26:35;2.50;99.90
3268;DHT22;1646;52.450;13.326;2023-01-20T22:31:33;2.50;99.90
3268;DHT22;1646;52.450;13.326;2023-01-20T22:36:33;2.50;99.90
3268;DHT22;1646;52.450;13.326;2023-01-20T22:41:32;2.40;99.90
3268;DHT22;1646;52.450;13.326;2023-01-20T22:46:30;2.30;99.90
3268;DHT22;1646;52.450;13.326;2023-01-20T22:51:29;2.40;99.90
3268;DHT22;1646;52.450;13.326;2023-01-20T22:56:31;2.50;99.90
3268;DHT22;1646;52.450;13.326;2023-01-20T23:01:31;2.40;99.90
3268;DHT22;1646;52.450;13.326;2023-01-20T23:06:30;2.40;99.90
3268;DHT22;1646;52.450;13.326;2023-01-20T23:11:31;2.40;99.90
3268;DHT22;1646;52.450;13.326;2023-01-20T23:16:29;2.40;99.90
3268;DHT22;1646;52.450;13.326;2023-01-20T23:21:28;2.30;99.90
3268;DHT22;1646;52.450;13.326;2023-01-20T23:26:28;2.30;99.90
3268;DHT22;1646;52.450;13.326;2023-01-20T23:31:28;2.30;99.90
3268;DHT22;1646;52.450;13.326;2023-01-20T23:36:29;2.40;99.90
3268;DHT22;1646;52.450;13.326;2023-01-20T23:41:28;2.40;99.90
3268;DHT22;1646;52.450;13.326;2023-01-20T23:46:27;2.60;99.90
3268;DHT22;1646;52.450;13.326;2023-01-20T23:51:25;2.30;99.90
3268;DHT22;1646;52.450;13.326;2023-01-20T23:56:24;2.30;99.90
